sensor_id;sensor_type;location;lat;lon;timestamp;P1;durP1;ratioP1;P2;durP2;ratioP2
35839;SDS011;35514;50.504;30.500;2023-03-14T00:01:07;18.23;;;4.82;;
35839;SDS011;35514;50.504;30.500;2023-03-14T00:03:36;9.32;;;4.18;;
35839;SDS011;35514;50.504;30.500;2023-03-14T00:06:05;13.80;;;4.70;;
35839;SDS011;35514;50.504;30.500;2023-03-14T00:08:33;9.07;;;4.38;;
35839;SDS011;35514;50.504;30.500;2023-03-14T00:11:05;10.35;;;4.03;;
35839;SDS011;35514;50.504;30.500;2023-03-14T00:13:33;9.00;;;4.43;;
35839;SDS011;35514;50.504;30.500;2023-03-14T00:16:04;10.68;;;4.85;;
35839;SDS011;35514;50.504;30.500;2023-03-14T00:18:32;11.20;;;4.85;;
35839;SDS011;35514;50.504;30.500;2023-03-14T00:21:02;8.23;;;4.20;;
35839;SDS011;35514;50.504;30.500;2023-03-14T00:23:30;10.15;;;4.47;;
35839;SDS011;35514;50.504;30.500;2023-03-14T00:25:58;7.78;;;4.03;;
35839;SDS011;35514;50.504;30.500;2023-03-14T00:28:27;10.88;;;4.40;;
35839;SDS011;35514;50.504;30.500;2023-03-14T00:30:55;8.88;;;4.43;;
35839;SDS011;35514;50.504;30.500;2023-03-14T00:33:23;7.25;;;4.13;;
35839;SDS011;35514;50.504;30.500;2023-03-14T00:35:54;9.27;;;4.78;;
35839;SDS011;35514;50.504;30.500;2023-03-14T00:38:23;16.73;;;5.28;;
35839;SDS011;35514;50.504;30.500;2023-03-14T00:40:51;12.55;;;4.65;;
35839;SDS011;35514;50.504;30.500;2023-03-14T00:43:20;11.13;;;4.63;;
35839;SDS011;35514;50.504;30.500;2023-03-14T00:45:49;11.57;;;5.00;;
35839;SDS011;35514;50.504;30.500;2023-03-14T00:48:20;7.78;;;4.32;;
35839;SDS011;35514;50.504;30.500;2023-03-14T00:50:48;8.68;;;4.75;;
35839;SDS011;35514;50.504;30.500;2023-03-14T00:53:16;13.05;;;5.25;;
35839;SDS011;35514;50.504;30.500;2023-03-14T00:55:46;7.97;;;4.30;;
35839;SDS011;35514;50.504;30.500;2023-03-14T00:58:14;7.03;;;4.15;;
35839;SDS011;35514;50.504;30.500;2023-03-14T01:00:42;11.02;;;4.10;;
35839;SDS011;35514;50.504;30.500;2023-03-14T01:03:11;12.68;;;4.85;;
35839;SDS011;35514;50.504;30.500;2023-03-14T01:05:39;8.25;;;4.20;;
35839;SDS011;35514;50.504;30.500;2023-03-14T01:08:07;11.93;;;4.72;;
35839;SDS011;35514;50.504;30.500;2023-03-14T01:10:37;11.60;;;4.78;;
35839;SDS011;35514;50.504;30.500;2023-03-14T01:13:07;6.75;;;3.85;;
35839;SDS011;35514;50.504;30.500;2023-03-14T01:15:35;12.13;;;4.65;;
35839;SDS011;35514;50.504;30.500;2023-03-14T01:18:09;20.90;;;4.38;;
35839;SDS011;35514;50.504;30.500;2023-03-14T01:20:37;7.50;;;4.30;;
35839;SDS011;35514;50.504;30.500;2023-03-14T01:23:05;10.00;;;4.35;;
35839;SDS011;35514;50.504;30.500;2023-03-14T01:25:33;8.77;;;4.38;;
35839;SDS011;35514;50.504;30.500;2023-03-14T01:28:01;9.30;;;4.78;;
35839;SDS011;35514;50.504;30.500;2023-03-14T01:30:30;13.45;;;4.55;;
35839;SDS011;35514;50.504;30.500;2023-03-14T01:32:58;11.20;;;4.55;;
35839;SDS011;35514;50.504;30.500;2023-03-14T01:35:26;13.88;;;4.47;;
35839;SDS011;35514;50.504;30.500;2023-03-14T01:37:53;9.32;;;4.63;;
35839;SDS011;35514;50.504;30.500;2023-03-14T01:40:27;5.93;;;4.05;;
35839;SDS011;35514;50.504;30.500;2023-03-14T01:43:06;16.08;;;5.93;;
35839;SDS011;35514;50.504;30.500;2023-03-14T01:48:31;10.23;;;4.00;;
35839;SDS011;35514;50.504;30.500;2023-03-14T01:51:00;7.72;;;4.45;;
35839;SDS011;35514;50.504;30.500;2023-03-14T01:53:28;22.17;;;4.95;;
35839;SDS011;35514;50.504;30.500;2023-03-14T01:55:56;9.25;;;4.50;;
35839;SDS011;35514;50.504;30.500;2023-03-14T01:58:25;12.35;;;5.00;;
35839;SDS011;35514;50.504;30.500;2023-03-14T02:00:54;9.13;;;4.38;;
35839;SDS011;35514;50.504;30.500;2023-03-14T02:03:23;7.95;;;4.80;;
35839;SDS011;35514;50.504;30.500;2023-03-14T02:06:03;12.05;;;4.65;;
35839;SDS011;35514;50.504;30.500;2023-03-14T02:08:38;7.50;;;4.10;;
35839;SDS011;35514;50.504;30.500;2023-03-14T02:11:07;6.88;;;4.07;;
35839;SDS011;35514;50.504;30.500;2023-03-14T02:13:35;10.48;;;4.47;;
35839;SDS011;35514;50.504;30.500;2023-03-14T02:16:06;13.43;;;4.72;;
35839;SDS011;35514;50.504;30.500;2023-03-14T02:18:36;8.30;;;4.03;;
35839;SDS011;35514;50.504;30.500;2023-03-14T02:21:11;9.63;;;4.60;;
35839;SDS011;35514;50.504;30.500;2023-03-14T02:23:43;14.75;;;4.47;;
35839;SDS011;35514;50.504;30.500;2023-03-14T02:26:14;11.90;;;4.82;;
35839;SDS011;35514;50.504;30.500;2023-03-14T02:28:44;7.68;;;4.70;;
35839;SDS011;35514;50.504;30.500;2023-03-14T02:31:12;8.05;;;4.30;;
35839;SDS011;35514;50.504;30.500;2023-03-14T02:33:40;9.63;;;4.47;;
35839;SDS011;35514;50.504;30.500;2023-03-14T02:36:11;8.93;;;4.20;;
35839;SDS011;35514;50.504;30.500;2023-03-14T02:38:41;6.57;;;4.43;;
35839;SDS011;35514;50.504;30.500;2023-03-14T02:41:11;7.70;;;4.20;;
35839;SDS011;35514;50.504;30.500;2023-03-14T02:43:39;13.30;;;4.15;;
35839;SDS011;35514;50.504;30.500;2023-03-14T02:46:10;9.73;;;3.70;;
35839;SDS011;35514;50.504;30.500;2023-03-14T02:48:39;10.57;;;4.75;;
35839;SDS011;35514;50.504;30.500;2023-03-14T02:51:09;15.02;;;4.50;;
35839;SDS011;35514;50.504;30.500;2023-03-14T02:53:40;11.93;;;4.60;;
35839;SDS011;35514;50.504;30.500;2023-03-14T02:56:32;9.98;;;3.83;;
35839;SDS011;35514;50.504;30.500;2023-03-14T02:59:02;9.52;;;4.40;;
35839;SDS011;35514;50.504;30.500;2023-03-14T03:01:31;10.23;;;4.43;;
35839;SDS011;35514;50.504;30.500;2023-03-14T03:04:00;8.13;;;3.95;;
35839;SDS011;35514;50.504;30.500;2023-03-14T03:06:28;9.65;;;4.43;;
35839;SDS011;35514;50.504;30.500;2023-03-14T03:08:56;8.75;;;4.10;;
35839;SDS011;35514;50.504;30.500;2023-03-14T03:11:24;8.50;;;4.60;;
35839;SDS011;35514;50.504;30.500;2023-03-14T03:13:52;7.97;;;4.15;;
35839;SDS011;35514;50.504;30.500;2023-03-14T03:16:20;7.05;;;4.38;;
35839;SDS011;35514;50.504;30.500;2023-03-14T03:18:49;10.35;;;4.68;;
35839;SDS011;35514;50.504;30.500;2023-03-14T03:21:18;6.30;;;4.13;;
35839;SDS011;35514;50.504;30.500;2023-03-14T03:23:49;10.27;;;4.80;;
35839;SDS011;35514;50.504;30.500;2023-03-14T03:26:17;7.13;;;4.50;;
35839;SDS011;35514;50.504;30.500;2023-03-14T03:28:45;12.88;;;5.65;;
35839;SDS011;35514;50.504;30.500;2023-03-14T03:31:13;12.73;;;5.03;;
35839;SDS011;35514;50.504;30.500;2023-03-14T03:33:41;9.95;;;5.20;;
35839;SDS011;35514;50.504;30.500;2023-03-14T03:36:11;14.63;;;4.10;;
35839;SDS011;35514;50.504;30.500;2023-03-14T03:38:38;9.82;;;5.00;;
35839;SDS011;35514;50.504;30.500;2023-03-14T03:41:06;7.97;;;4.63;;
35839;SDS011;35514;50.504;30.500;2023-03-14T03:43:35;8.32;;;4.43;;
35839;SDS011;35514;50.504;30.500;2023-03-14T03:46:03;11.13;;;5.05;;
35839;SDS011;35514;50.504;30.500;2023-03-14T03:48:31;9.02;;;4.57;;
35839;SDS011;35514;50.504;30.500;2023-03-14T03:51:00;8.23;;;4.88;;
35839;SDS011;35514;50.504;30.500;2023-03-14T03:53:29;10.30;;;5.85;;
35839;SDS011;35514;50.504;30.500;2023-03-14T03:55:59;9.65;;;4.95;;
35839;SDS011;35514;50.504;30.500;2023-03-14T03:58:27;10.93;;;4.72;;
35839;SDS011;35514;50.504;30.500;2023-03-14T04:00:57;16.35;;;4.82;;
35839;SDS011;35514;50.504;30.500;2023-03-14T04:03:25;8.18;;;4.72;;
35839;SDS011;35514;50.504;30.500;2023-03-14T04:05:57;8.70;;;4.53;;
35839;SDS011;35514;50.504;30.500;2023-03-14T04:08:25;8.85;;;5.00;;
35839;SDS011;35514;50.504;30.500;2023-03-14T04:10:55;8.23;;;4.55;;
35839;SDS011;35514;50.504;30.500;2023-03-14T04:13:23;9.15;;;4.95;;
35839;SDS011;35514;50.504;30.500;2023-03-14T04:15:51;9.13;;;4.75;;
35839;SDS011;35514;50.504;30.500;2023-03-14T04:18:19;14.60;;;4.60;;
35839;SDS011;35514;50.504;30.500;2023-03-14T04:20:50;8.80;;;4.60;;
35839;SDS011;35514;50.504;30.500;2023-03-14T04:23:19;10.48;;;4.63;;
35839;SDS011;35514;50.504;30.500;2023-03-14T04:25:46;10.05;;;4.70;;
35839;SDS011;35514;50.504;30.500;2023-03-14T04:28:23;10.82;;;4.85;;
35839;SDS011;35514;50.504;30.500;2023-03-14T04:30:51;11.95;;;5.28;;
35839;SDS011;35514;50.504;30.500;2023-03-14T04:33:19;9.43;;;4.20;;
35839;SDS011;35514;50.504;30.500;2023-03-14T04:35:47;10.50;;;4.63;;
35839;SDS011;35514;50.504;30.500;2023-03-14T04:38:16;10.57;;;4.93;;
35839;SDS011;35514;50.504;30.500;2023-03-14T04:40:44;11.02;;;4.82;;
35839;SDS011;35514;50.504;30.500;2023-03-14T04:43:11;8.85;;;5.00;;
35839;SDS011;35514;50.504;30.500;2023-03-14T04:45:42;12.35;;;4.82;;
35839;SDS011;35514;50.504;30.500;2023-03-14T04:48:09;10.38;;;4.82;;
35839;SDS011;35514;50.504;30.500;2023-03-14T04:50:37;12.10;;;4.88;;
35839;SDS011;35514;50.504;30.500;2023-03-14T04:53:04;13.30;;;5.18;;
35839;SDS011;35514;50.504;30.500;2023-03-14T04:55:33;8.80;;;5.00;;
35839;SDS011;35514;50.504;30.500;2023-03-14T04:58:02;10.73;;;5.07;;
35839;SDS011;35514;50.504;30.500;2023-03-14T05:00:29;6.85;;;4.03;;
35839;SDS011;35514;50.504;30.500;2023-03-14T05:02:59;9.70;;;4.50;;
35839;SDS011;35514;50.504;30.500;2023-03-14T05:05:27;6.72;;;3.83;;
35839;SDS011;35514;50.504;30.500;2023-03-14T05:07:54;10.13;;;4.95;;
35839;SDS011;35514;50.504;30.500;2023-03-14T05:10:22;12.85;;;5.72;;
35839;SDS011;35514;50.504;30.500;2023-03-14T05:12:51;8.13;;;4.28;;
35839;SDS011;35514;50.504;30.500;2023-03-14T05:15:19;8.85;;;5.93;;
35839;SDS011;35514;50.504;30.500;2023-03-14T05:17:47;8.10;;;4.70;;
35839;SDS011;35514;50.504;30.500;2023-03-14T05:20:16;7.75;;;4.13;;
35839;SDS011;35514;50.504;30.500;2023-03-14T05:22:44;10.45;;;4.50;;
35839;SDS011;35514;50.504;30.500;2023-03-14T05:25:12;9.80;;;4.55;;
35839;SDS011;35514;50.504;30.500;2023-03-14T05:27:40;9.20;;;4.68;;
35839;SDS011;35514;50.504;30.500;2023-03-14T05:30:09;12.13;;;4.55;;
35839;SDS011;35514;50.504;30.500;2023-03-14T05:32:37;12.48;;;4.50;;
35839;SDS011;35514;50.504;30.500;2023-03-14T05:35:04;9.85;;;5.15;;
35839;SDS011;35514;50.504;30.500;2023-03-14T05:37:36;12.75;;;4.20;;
35839;SDS011;35514;50.504;30.500;2023-03-14T05:40:04;7.88;;;3.85;;
35839;SDS011;35514;50.504;30.500;2023-03-14T05:42:33;15.75;;;4.50;;
35839;SDS011;35514;50.504;30.500;2023-03-14T05:45:00;9.07;;;3.92;;
35839;SDS011;35514;50.504;30.500;2023-03-14T05:47:28;5.93;;;3.60;;
35839;SDS011;35514;50.504;30.500;2023-03-14T05:49:56;8.25;;;4.18;;
35839;SDS011;35514;50.504;30.500;2023-03-14T05:52:24;8.63;;;3.78;;
35839;SDS011;35514;50.504;30.500;2023-03-14T05:54:53;10.13;;;4.25;;
35839;SDS011;35514;50.504;30.500;2023-03-14T05:57:20;7.07;;;3.72;;
35839;SDS011;35514;50.504;30.500;2023-03-14T05:59:48;9.52;;;4.20;;
35839;SDS011;35514;50.504;30.500;2023-03-14T06:02:16;8.10;;;3.88;;
35839;SDS011;35514;50.504;30.500;2023-03-14T06:04:44;7.60;;;3.92;;
35839;SDS011;35514;50.504;30.500;2023-03-14T06:07:11;10.18;;;3.75;;
35839;SDS011;35514;50.504;30.500;2023-03-14T06:09:39;11.98;;;3.65;;
35839;SDS011;35514;50.504;30.500;2023-03-14T06:12:08;7.25;;;4.22;;
35839;SDS011;35514;50.504;30.500;2023-03-14T06:14:36;8.60;;;3.90;;
35839;SDS011;35514;50.504;30.500;2023-03-14T06:17:04;6.85;;;3.80;;
35839;SDS011;35514;50.504;30.500;2023-03-14T06:19:31;6.22;;;3.65;;
35839;SDS011;35514;50.504;30.500;2023-03-14T06:21:59;11.02;;;3.58;;
35839;SDS011;35514;50.504;30.500;2023-03-14T06:24:27;6.65;;;3.80;;
35839;SDS011;35514;50.504;30.500;2023-03-14T06:26:55;9.77;;;4.22;;
35839;SDS011;35514;50.504;30.500;2023-03-14T06:29:24;6.97;;;3.63;;
35839;SDS011;35514;50.504;30.500;2023-03-14T06:31:52;8.07;;;4.25;;
35839;SDS011;35514;50.504;30.500;2023-03-14T06:34:19;5.00;;;3.30;;
35839;SDS011;35514;50.504;30.500;2023-03-14T06:36:47;9.93;;;4.22;;
35839;SDS011;35514;50.504;30.500;2023-03-14T06:39:22;10.48;;;4.28;;
35839;SDS011;35514;50.504;30.500;2023-03-14T06:42:09;6.78;;;3.83;;
35839;SDS011;35514;50.504;30.500;2023-03-14T06:44:38;7.95;;;3.58;;
35839;SDS011;35514;50.504;30.500;2023-03-14T06:47:05;7.85;;;4.00;;
35839;SDS011;35514;50.504;30.500;2023-03-14T06:49:33;10.68;;;4.45;;
35839;SDS011;35514;50.504;30.500;2023-03-14T06:52:03;8.75;;;4.05;;
35839;SDS011;35514;50.504;30.500;2023-03-14T06:54:31;6.25;;;3.83;;
35839;SDS011;35514;50.504;30.500;2023-03-14T06:56:58;6.25;;;3.15;;
35839;SDS011;35514;50.504;30.500;2023-03-14T06:59:26;6.43;;;3.47;;
35839;SDS011;35514;50.504;30.500;2023-03-14T07:01:55;7.78;;;3.80;;
35839;SDS011;35514;50.504;30.500;2023-03-14T07:04:22;12.52;;;3.85;;
35839;SDS011;35514;50.504;30.500;2023-03-14T07:06:50;10.43;;;3.90;;
35839;SDS011;35514;50.504;30.500;2023-03-14T07:09:18;12.13;;;4.05;;
35839;SDS011;35514;50.504;30.500;2023-03-14T07:11:45;6.63;;;3.47;;
35839;SDS011;35514;50.504;30.500;2023-03-14T07:14:13;7.25;;;3.95;;
35839;SDS011;35514;50.504;30.500;2023-03-14T07:16:41;12.00;;;3.80;;
35839;SDS011;35514;50.504;30.500;2023-03-14T07:19:10;8.50;;;3.92;;
35839;SDS011;35514;50.504;30.500;2023-03-14T07:21:38;4.95;;;3.03;;
35839;SDS011;35514;50.504;30.500;2023-03-14T07:24:06;16.70;;;3.83;;
35839;SDS011;35514;50.504;30.500;2023-03-14T07:26:33;6.63;;;3.33;;
35839;SDS011;35514;50.504;30.500;2023-03-14T07:29:02;7.63;;;3.60;;
35839;SDS011;35514;50.504;30.500;2023-03-14T07:31:30;3.97;;;2.92;;
35839;SDS011;35514;50.504;30.500;2023-03-14T07:33:57;4.95;;;3.22;;
35839;SDS011;35514;50.504;30.500;2023-03-14T07:36:27;7.43;;;3.83;;
35839;SDS011;35514;50.504;30.500;2023-03-14T07:38:55;7.57;;;3.75;;
35839;SDS011;35514;50.504;30.500;2023-03-14T07:41:22;12.07;;;3.75;;
35839;SDS011;35514;50.504;30.500;2023-03-14T07:43:51;10.00;;;4.50;;
35839;SDS011;35514;50.504;30.500;2023-03-14T07:46:19;11.90;;;3.63;;
35839;SDS011;35514;50.504;30.500;2023-03-14T07:48:46;9.20;;;3.60;;
35839;SDS011;35514;50.504;30.500;2023-03-14T07:51:14;4.25;;;2.85;;
35839;SDS011;35514;50.504;30.500;2023-03-14T07:53:43;11.95;;;3.67;;
35839;SDS011;35514;50.504;30.500;2023-03-14T07:56:12;9.65;;;3.13;;
35839;SDS011;35514;50.504;30.500;2023-03-14T07:58:40;10.77;;;3.42;;
35839;SDS011;35514;50.504;30.500;2023-03-14T08:01:10;5.45;;;2.95;;
35839;SDS011;35514;50.504;30.500;2023-03-14T08:03:37;10.63;;;3.58;;
35839;SDS011;35514;50.504;30.500;2023-03-14T08:06:06;8.65;;;3.33;;
35839;SDS011;35514;50.504;30.500;2023-03-14T08:08:34;7.72;;;3.83;;
35839;SDS011;35514;50.504;30.500;2023-03-14T08:11:05;8.73;;;3.88;;
35839;SDS011;35514;50.504;30.500;2023-03-14T08:13:35;7.80;;;3.58;;
35839;SDS011;35514;50.504;30.500;2023-03-14T08:16:03;5.38;;;3.15;;
35839;SDS011;35514;50.504;30.500;2023-03-14T08:18:31;7.15;;;3.25;;
35839;SDS011;35514;50.504;30.500;2023-03-14T08:21:00;9.10;;;4.72;;
35839;SDS011;35514;50.504;30.500;2023-03-14T08:23:31;7.38;;;3.72;;
35839;SDS011;35514;50.504;30.500;2023-03-14T08:25:59;4.82;;;3.00;;
35839;SDS011;35514;50.504;30.500;2023-03-14T08:28:28;10.15;;;4.05;;
35839;SDS011;35514;50.504;30.500;2023-03-14T08:30:59;11.85;;;4.07;;
35839;SDS011;35514;50.504;30.500;2023-03-14T08:33:28;7.32;;;3.42;;
35839;SDS011;35514;50.504;30.500;2023-03-14T08:35:56;10.50;;;3.72;;
35839;SDS011;35514;50.504;30.500;2023-03-14T08:38:25;12.10;;;3.53;;
35839;SDS011;35514;50.504;30.500;2023-03-14T08:40:56;7.85;;;3.85;;
35839;SDS011;35514;50.504;30.500;2023-03-14T08:43:28;8.10;;;3.60;;
35839;SDS011;35514;50.504;30.500;2023-03-14T08:45:57;5.82;;;3.25;;
35839;SDS011;35514;50.504;30.500;2023-03-14T08:48:25;4.85;;;2.78;;
35839;SDS011;35514;50.504;30.500;2023-03-14T08:50:53;20.05;;;3.80;;
35839;SDS011;35514;50.504;30.500;2023-03-14T08:53:22;9.07;;;3.30;;
35839;SDS011;35514;50.504;30.500;2023-03-14T08:55:52;8.75;;;3.45;;
35839;SDS011;35514;50.504;30.500;2023-03-14T08:58:19;12.27;;;3.22;;
35839;SDS011;35514;50.504;30.500;2023-03-14T09:00:51;8.32;;;3.30;;
35839;SDS011;35514;50.504;30.500;2023-03-14T09:03:23;8.63;;;3.60;;
35839;SDS011;35514;50.504;30.500;2023-03-14T09:06:00;4.40;;;2.60;;
35839;SDS011;35514;50.504;30.500;2023-03-14T09:08:29;5.90;;;3.05;;
35839;SDS011;35514;50.504;30.500;2023-03-14T09:10:57;11.18;;;3.38;;
35839;SDS011;35514;50.504;30.500;2023-03-14T09:13:26;14.48;;;3.47;;
35839;SDS011;35514;50.504;30.500;2023-03-14T09:15:56;7.63;;;3.40;;
35839;SDS011;35514;50.504;30.500;2023-03-14T09:18:25;17.98;;;3.92;;
35839;SDS011;35514;50.504;30.500;2023-03-14T09:20:52;8.00;;;3.58;;
35839;SDS011;35514;50.504;30.500;2023-03-14T09:23:20;7.28;;;3.38;;
35839;SDS011;35514;50.504;30.500;2023-03-14T09:25:55;5.30;;;2.92;;
35839;SDS011;35514;50.504;30.500;2023-03-14T09:28:23;11.00;;;3.90;;
35839;SDS011;35514;50.504;30.500;2023-03-14T09:30:51;7.90;;;2.70;;
35839;SDS011;35514;50.504;30.500;2023-03-14T09:33:22;6.63;;;3.30;;
35839;SDS011;35514;50.504;30.500;2023-03-14T09:35:50;7.30;;;2.90;;
35839;SDS011;35514;50.504;30.500;2023-03-14T09:38:18;8.13;;;3.15;;
35839;SDS011;35514;50.504;30.500;2023-03-14T09:40:47;8.98;;;2.90;;
35839;SDS011;35514;50.504;30.500;2023-03-14T09:43:14;8.13;;;3.00;;
35839;SDS011;35514;50.504;30.500;2023-03-14T09:45:43;4.60;;;2.45;;
35839;SDS011;35514;50.504;30.500;2023-03-14T09:48:15;11.38;;;3.50;;
35839;SDS011;35514;50.504;30.500;2023-03-14T09:50:47;12.48;;;2.70;;
35839;SDS011;35514;50.504;30.500;2023-03-14T09:53:17;12.82;;;3.17;;
35839;SDS011;35514;50.504;30.500;2023-03-14T09:55:45;5.60;;;2.35;;
35839;SDS011;35514;50.504;30.500;2023-03-14T09:58:14;3.80;;;2.35;;
35839;SDS011;35514;50.504;30.500;2023-03-14T10:00:43;6.22;;;2.63;;
35839;SDS011;35514;50.504;30.500;2023-03-14T10:03:21;11.35;;;2.75;;
35839;SDS011;35514;50.504;30.500;2023-03-14T10:05:51;5.03;;;3.08;;
35839;SDS011;35514;50.504;30.500;2023-03-14T10:08:25;7.50;;;2.73;;
35839;SDS011;35514;50.504;30.500;2023-03-14T10:10:56;5.15;;;2.47;;
35839;SDS011;35514;50.504;30.500;2023-03-14T10:13:28;4.55;;;2.38;;
35839;SDS011;35514;50.504;30.500;2023-03-14T10:15:58;12.00;;;3.35;;
35839;SDS011;35514;50.504;30.500;2023-03-14T10:18:28;4.47;;;2.60;;
35839;SDS011;35514;50.504;30.500;2023-03-14T10:21:06;10.48;;;2.55;;
35839;SDS011;35514;50.504;30.500;2023-03-14T10:23:38;6.55;;;2.70;;
35839;SDS011;35514;50.504;30.500;2023-03-14T10:26:12;9.50;;;2.58;;
35839;SDS011;35514;50.504;30.500;2023-03-14T10:28:45;6.15;;;2.20;;
35839;SDS011;35514;50.504;30.500;2023-03-14T10:31:17;7.97;;;3.17;;
35839;SDS011;35514;50.504;30.500;2023-03-14T10:33:57;13.55;;;2.00;;
35839;SDS011;35514;50.504;30.500;2023-03-14T10:36:27;3.85;;;2.33;;
35839;SDS011;35514;50.504;30.500;2023-03-14T10:38:57;13.88;;;3.28;;
35839;SDS011;35514;50.504;30.500;2023-03-14T10:41:27;3.30;;;2.00;;
35839;SDS011;35514;50.504;30.500;2023-03-14T10:43:56;6.68;;;2.35;;
35839;SDS011;35514;50.504;30.500;2023-03-14T10:46:26;5.55;;;2.85;;
35839;SDS011;35514;50.504;30.500;2023-03-14T10:48:54;4.70;;;2.22;;
35839;SDS011;35514;50.504;30.500;2023-03-14T10:51:24;4.07;;;2.10;;
35839;SDS011;35514;50.504;30.500;2023-03-14T10:53:59;5.68;;;3.50;;
35839;SDS011;35514;50.504;30.500;2023-03-14T10:56:32;10.88;;;2.83;;
35839;SDS011;35514;50.504;30.500;2023-03-14T11:01:36;10.30;;;3.42;;
35839;SDS011;35514;50.504;30.500;2023-03-14T11:04:10;5.20;;;2.90;;
35839;SDS011;35514;50.504;30.500;2023-03-14T11:06:44;11.25;;;3.35;;
35839;SDS011;35514;50.504;30.500;2023-03-14T11:09:36;6.65;;;2.85;;
35839;SDS011;35514;50.504;30.500;2023-03-14T11:12:15;3.95;;;2.35;;
35839;SDS011;35514;50.504;30.500;2023-03-14T11:14:54;7.55;;;2.53;;
35839;SDS011;35514;50.504;30.500;2023-03-14T11:17:27;7.40;;;3.60;;
35839;SDS011;35514;50.504;30.500;2023-03-14T11:20:03;5.30;;;2.60;;
35839;SDS011;35514;50.504;30.500;2023-03-14T11:22:36;6.82;;;2.80;;
35839;SDS011;35514;50.504;30.500;2023-03-14T11:25:20;4.65;;;3.00;;
35839;SDS011;35514;50.504;30.500;2023-03-14T11:27:52;4.13;;;2.53;;
35839;SDS011;35514;50.504;30.500;2023-03-14T11:30:24;4.68;;;2.33;;
35839;SDS011;35514;50.504;30.500;2023-03-14T11:32:59;8.15;;;2.42;;
35839;SDS011;35514;50.504;30.500;2023-03-14T11:35:31;4.40;;;2.35;;
35839;SDS011;35514;50.504;30.500;2023-03-14T11:38:05;4.28;;;2.15;;
35839;SDS011;35514;50.504;30.500;2023-03-14T11:40:39;4.03;;;2.38;;
35839;SDS011;35514;50.504;30.500;2023-03-14T11:43:10;3.42;;;2.00;;
35839;SDS011;35514;50.504;30.500;2023-03-14T11:45:39;11.80;;;3.08;;
35839;SDS011;35514;50.504;30.500;2023-03-14T11:48:14;6.47;;;2.03;;
35839;SDS011;35514;50.504;30.500;2023-03-14T11:50:44;5.38;;;2.58;;
35839;SDS011;35514;50.504;30.500;2023-03-14T11:53:13;9.27;;;2.20;;
35839;SDS011;35514;50.504;30.500;2023-03-14T11:55:43;4.68;;;2.22;;
35839;SDS011;35514;50.504;30.500;2023-03-14T11:58:13;5.35;;;2.08;;
35839;SDS011;35514;50.504;30.500;2023-03-14T12:00:42;4.35;;;2.10;;
35839;SDS011;35514;50.504;30.500;2023-03-14T12:03:13;11.20;;;2.13;;
35839;SDS011;35514;50.504;30.500;2023-03-14T12:05:45;5.93;;;2.28;;
35839;SDS011;35514;50.504;30.500;2023-03-14T12:11:01;2.92;;;1.65;;
35839;SDS011;35514;50.504;30.500;2023-03-14T12:13:31;3.80;;;1.83;;
35839;SDS011;35514;50.504;30.500;2023-03-14T12:16:00;7.93;;;2.15;;
35839;SDS011;35514;50.504;30.500;2023-03-14T12:18:32;3.92;;;1.88;;
35839;SDS011;35514;50.504;30.500;2023-03-14T12:21:03;9.52;;;2.38;;
35839;SDS011;35514;50.504;30.500;2023-03-14T12:23:35;5.70;;;1.90;;
35839;SDS011;35514;50.504;30.500;2023-03-14T12:26:08;7.13;;;2.00;;
35839;SDS011;35514;50.504;30.500;2023-03-14T12:28:43;4.85;;;1.98;;
35839;SDS011;35514;50.504;30.500;2023-03-14T12:31:35;7.18;;;1.50;;
35839;SDS011;35514;50.504;30.500;2023-03-14T12:34:28;5.70;;;1.85;;
35839;SDS011;35514;50.504;30.500;2023-03-14T12:37:23;4.43;;;1.95;;
35839;SDS011;35514;50.504;30.500;2023-03-14T12:39:56;4.95;;;1.63;;
35839;SDS011;35514;50.504;30.500;2023-03-14T12:42:37;4.10;;;1.77;;
35839;SDS011;35514;50.504;30.500;2023-03-14T12:45:14;4.32;;;1.80;;
35839;SDS011;35514;50.504;30.500;2023-03-14T12:47:45;4.07;;;1.40;;
35839;SDS011;35514;50.504;30.500;2023-03-14T12:50:19;2.00;;;1.35;;
35839;SDS011;35514;50.504;30.500;2023-03-14T12:52:55;3.40;;;1.52;;
35839;SDS011;35514;50.504;30.500;2023-03-14T12:55:27;4.30;;;1.50;;
35839;SDS011;35514;50.504;30.500;2023-03-14T12:58:02;5.68;;;2.47;;
35839;SDS011;35514;50.504;30.500;2023-03-14T13:00:31;2.47;;;1.40;;
35839;SDS011;35514;50.504;30.500;2023-03-14T13:03:00;2.50;;;1.40;;
35839;SDS011;35514;50.504;30.500;2023-03-14T13:05:30;5.53;;;1.60;;
35839;SDS011;35514;50.504;30.500;2023-03-14T13:08:02;3.17;;;1.35;;
35839;SDS011;35514;50.504;30.500;2023-03-14T13:10:30;2.05;;;1.20;;
35839;SDS011;35514;50.504;30.500;2023-03-14T13:13:10;5.68;;;1.60;;
35839;SDS011;35514;50.504;30.500;2023-03-14T13:15:42;6.97;;;1.88;;
35839;SDS011;35514;50.504;30.500;2023-03-14T13:18:12;5.60;;;2.03;;
35839;SDS011;35514;50.504;30.500;2023-03-14T13:20:41;8.90;;;2.10;;
35839;SDS011;35514;50.504;30.500;2023-03-14T13:23:21;6.50;;;1.88;;
35839;SDS011;35514;50.504;30.500;2023-03-14T13:25:49;3.95;;;2.00;;
35839;SDS011;35514;50.504;30.500;2023-03-14T13:28:19;7.40;;;2.80;;
35839;SDS011;35514;50.504;30.500;2023-03-14T13:30:47;6.07;;;1.77;;
35839;SDS011;35514;50.504;30.500;2023-03-14T13:33:15;4.50;;;1.50;;
35839;SDS011;35514;50.504;30.500;2023-03-14T13:35:45;4.80;;;1.35;;
35839;SDS011;35514;50.504;30.500;2023-03-14T13:38:15;1.88;;;1.20;;
35839;SDS011;35514;50.504;30.500;2023-03-14T13:40:43;2.50;;;1.25;;
35839;SDS011;35514;50.504;30.500;2023-03-14T13:43:14;3.85;;;1.52;;
35839;SDS011;35514;50.504;30.500;2023-03-14T13:46:02;3.88;;;1.80;;
35839;SDS011;35514;50.504;30.500;2023-03-14T13:48:32;3.60;;;1.38;;
35839;SDS011;35514;50.504;30.500;2023-03-14T13:51:00;2.35;;;1.30;;
35839;SDS011;35514;50.504;30.500;2023-03-14T13:53:29;3.92;;;1.77;;
35839;SDS011;35514;50.504;30.500;2023-03-14T13:55:57;2.83;;;1.50;;
35839;SDS011;35514;50.504;30.500;2023-03-14T13:58:29;4.13;;;2.10;;
35839;SDS011;35514;50.504;30.500;2023-03-14T14:00:59;3.72;;;1.70;;
35839;SDS011;35514;50.504;30.500;2023-03-14T14:03:30;4.80;;;2.08;;
35839;SDS011;35514;50.504;30.500;2023-03-14T14:05:58;3.67;;;1.80;;
35839;SDS011;35514;50.504;30.500;2023-03-14T14:08:26;8.48;;;1.75;;
35839;SDS011;35514;50.504;30.500;2023-03-14T14:10:57;6.40;;;1.92;;
35839;SDS011;35514;50.504;30.500;2023-03-14T14:13:26;4.32;;;1.40;;
35839;SDS011;35514;50.504;30.500;2023-03-14T14:15:55;5.65;;;1.73;;
35839;SDS011;35514;50.504;30.500;2023-03-14T14:18:28;4.85;;;2.60;;
35839;SDS011;35514;50.504;30.500;2023-03-14T14:20:56;7.28;;;1.80;;
35839;SDS011;35514;50.504;30.500;2023-03-14T14:23:25;4.00;;;1.70;;
35839;SDS011;35514;50.504;30.500;2023-03-14T14:25:55;4.57;;;1.90;;
35839;SDS011;35514;50.504;30.500;2023-03-14T14:28:25;9.40;;;2.75;;
35839;SDS011;35514;50.504;30.500;2023-03-14T14:31:00;10.20;;;3.28;;
35839;SDS011;35514;50.504;30.500;2023-03-14T14:33:30;5.63;;;2.30;;
35839;SDS011;35514;50.504;30.500;2023-03-14T14:36:05;4.47;;;2.35;;
35839;SDS011;35514;50.504;30.500;2023-03-14T14:38:39;5.65;;;2.42;;
35839;SDS011;35514;50.504;30.500;2023-03-14T14:41:10;3.60;;;2.05;;
35839;SDS011;35514;50.504;30.500;2023-03-14T14:43:38;3.80;;;1.63;;
35839;SDS011;35514;50.504;30.500;2023-03-14T14:46:08;5.63;;;1.77;;
35839;SDS011;35514;50.504;30.500;2023-03-14T14:52:09;9.52;;;1.70;;
35839;SDS011;35514;50.504;30.500;2023-03-14T14:54:38;2.92;;;1.50;;
35839;SDS011;35514;50.504;30.500;2023-03-14T14:57:12;4.38;;;2.35;;
35839;SDS011;35514;50.504;30.500;2023-03-14T14:59:43;3.58;;;1.50;;